Time;durP1;ratioP1;P1;durP2;ratioP2;P2;SDS_P1;SDS_P2;PMS_P1;PMS_P2;Temp;Humidity;BMP_temperature;BMP_pressure;BME280_temperature;BME280_humidity;BME280_pressure;Samples;Min_cycle;Max_cycle;Signal;HPM_P1;HPM_P2
2023/10/08 00:00:49;;;;;;;0.70;0.70;;;;;;;;;;4995860;28;59458;-66
2023/10/08 00:03:14;;;;;;;0.93;0.77;;;;;;;;;;4994450;28;59268;-70
2023/10/08 00:05:40;;;;;;;2.10;0.70;;;;;;;;;;4996483;28;58448;-66
2023/10/08 00:08:06;;;;;;;1.00;0.60;;;;;;;;;;4992333;28;58937;-67
2023/10/08 00:10:39;;;;;;;1.27;0.47;;;;;;;;;;4995115;28;58347;-65
2023/10/08 00:13:07;;;;;;;0.40;0.40;;;;;;;;;;4994613;28;60219;-64
2023/10/08 00:15:33;;;;;;;0.75;0.75;;;;;;;;;;4993364;28;59472;-67
2023/10/08 00:18:00;;;;;;;0.65;0.63;;;;;;;;;;4994886;28;59356;-64
2023/10/08 00:20:28;;;;;;;1.13;1.02;;;;;;;;;;4994693;28;60239;-68
2023/10/08 00:22:55;;;;;;;0.77;0.60;;;;;;;;;;4994392;28;59056;-67
2023/10/08 00:25:20;;;;;;;0.88;0.70;;;;;;;;;;4995357;28;60755;-66
2023/10/08 00:27:49;;;;;;;0.67;0.43;;;;;;;;;;4993641;28;64253;-65
2023/10/08 00:30:17;;;;;;;0.75;0.60;;;;;;;;;;4995208;28;58433;-66
2023/10/08 00:32:43;;;;;;;1.17;0.50;;;;;;;;;;4993831;28;60542;-65
2023/10/08 00:35:13;;;;;;;0.60;0.60;;;;;;;;;;4993844;28;58907;-65
2023/10/08 00:37:38;;;;;;;0.60;0.55;;;;;;;;;;4993503;28;58610;-68
2023/10/08 00:40:11;;;;;;;0.55;0.55;;;;;;;;;;4995086;28;59219;-64
2023/10/08 00:42:36;;;;;;;0.40;0.40;;;;;;;;;;4993599;28;58430;-71
2023/10/08 00:45:04;;;;;;;0.50;0.50;;;;;;;;;;4994378;28;58470;-67
2023/10/08 00:47:34;;;;;;;0.43;0.40;;;;;;;;;;4993694;28;58582;-67
2023/10/08 00:50:07;;;;;;;1.48;0.70;;;;;;;;;;4994502;28;58512;-66
2023/10/08 00:52:53;;;;;;;0.80;0.73;;;;;;;;;;4994806;28;59518;-68
2023/10/08 00:55:28;;;;;;;1.83;0.80;;;;;;;;;;4994828;28;60088;-67
2023/10/08 00:57:57;;;;;;;1.13;0.55;;;;;;;;;;4993775;28;58416;-66
2023/10/08 01:00:22;;;;;;;0.50;0.50;;;;;;;;;;4995125;28;58867;-69
2023/10/08 01:03:00;;;;;;;0.57;0.47;;;;;;;;;;4994881;28;59222;-64
2023/10/08 01:05:42;;;;;;;0.52;0.40;;;;;;;;;;4994663;28;58599;-68
2023/10/08 01:08:07;;;;;;;0.75;0.60;;;;;;;;;;4992081;28;59366;-68
2023/10/08 01:10:32;;;;;;;1.65;0.50;;;;;;;;;;4994672;28;58525;-66
2023/10/08 01:15:30;;;;;;;0.97;0.90;;;;;;;;;;4994976;28;58345;-67
2023/10/08 01:17:59;;;;;;;0.52;0.52;;;;;;;;;;4997652;28;58444;-67
2023/10/08 01:20:35;;;;;;;0.93;0.32;;;;;;;;;;4997919;28;60367;-67
2023/10/08 01:23:03;;;;;;;0.80;0.57;;;;;;;;;;4998182;28;58523;-68
2023/10/08 01:25:29;;;;;;;0.77;0.40;;;;;;;;;;4996263;28;58527;-68
2023/10/08 01:28:01;;;;;;;0.47;0.38;;;;;;;;;;4998524;28;59505;-67
2023/10/08 01:30:26;;;;;;;0.50;0.35;;;;;;;;;;4999305;28;58396;-66
2023/10/08 01:32:51;;;;;;;1.85;0.43;;;;;;;;;;4999038;28;59155;-67
2023/10/08 01:35:23;;;;;;;0.57;0.43;;;;;;;;;;5000687;28;58956;-68
2023/10/08 01:37:52;;;;;;;0.40;0.40;;;;;;;;;;4995272;28;58560;-67
2023/10/08 01:40:20;;;;;;;0.47;0.47;;;;;;;;;;4996985;28;58528;-67
2023/10/08 01:42:46;;;;;;;;;;;;;;;;;;4998751;28;58975;-69
2023/10/08 01:45:13;;;;;;;0.35;0.20;;;;;;;;;;4998748;28;58403;-67
2023/10/08 01:47:38;;;;;;;1.10;1.00;;;;;;;;;;4998495;28;61063;-67
2023/10/08 01:50:18;;;;;;;0.60;0.50;;;;;;;;;;4997434;28;59680;-67
2023/10/08 01:52:46;;;;;;;0.45;0.45;;;;;;;;;;4998534;28;59844;-68
2023/10/08 01:55:14;;;;;;;;;;;;;;;;;;4996141;28;58522;-67
2023/10/08 01:57:39;;;;;;;;;;;;;;;;;;4996970;28;58576;-67
2023/10/08 02:00:06;;;;;;;0.30;0.30;;;;;;;;;;4996630;28;59400;-67
2023/10/08 02:02:31;;;;;;;0.82;0.40;;;;;;;;;;5000566;28;58366;-68
2023/10/08 02:04:56;;;;;;;0.50;0.40;;;;;;;;;;5001592;28;58521;-68
2023/10/08 02:07:21;;;;;;;1.37;0.60;;;;;;;;;;5000747;28;59531;-68
2023/10/08 02:09:46;;;;;;;0.37;0.37;;;;;;;;;;4999891;28;58482;-68
2023/10/08 02:12:14;;;;;;;0.70;0.70;;;;;;;;;;5000573;28;58438;-67
2023/10/08 02:14:40;;;;;;;0.28;0.28;;;;;;;;;;5002009;28;60019;-68
2023/10/08 02:17:06;;;;;;;0.95;0.70;;;;;;;;;;4999418;28;59764;-67
2023/10/08 02:19:36;;;;;;;3.75;0.50;;;;;;;;;;5001898;28;60996;-67
2023/10/08 02:22:02;;;;;;;0.85;0.50;;;;;;;;;;4998312;28;59118;-67
2023/10/08 02:24:29;;;;;;;0.47;0.40;;;;;;;;;;4998741;28;58502;-67
2023/10/08 02:26:56;;;;;;;0.38;0.35;;;;;;;;;;4999489;28;59620;-67
2023/10/08 02:29:30;;;;;;;0.38;0.30;;;;;;;;;;5000067;28;58386;-67
2023/10/08 02:31:55;;;;;;;0.50;0.50;;;;;;;;;;4998320;28;58711;-67
2023/10/08 02:34:20;;;;;;;0.30;0.30;;;;;;;;;;4999199;28;58742;-67
2023/10/08 02:36:46;;;;;;;0.28;0.28;;;;;;;;;;4997713;28;58489;-66
2023/10/08 02:39:24;;;;;;;0.40;0.40;;;;;;;;;;4998723;28;58551;-67
2023/10/08 02:41:50;;;;;;;0.75;0.75;;;;;;;;;;4998872;28;58739;-69
2023/10/08 02:44:16;;;;;;;0.27;0.27;;;;;;;;;;4997998;28;58407;-67
2023/10/08 02:46:44;;;;;;;0.40;0.40;;;;;;;;;;4995673;28;59641;-67
2023/10/08 02:49:11;;;;;;;0.25;0.25;;;;;;;;;;4998770;28;58919;-67
2023/10/08 02:51:36;;;;;;;0.30;0.30;;;;;;;;;;4996928;28;58461;-67
2023/10/08 02:54:05;;;;;;;0.32;0.32;;;;;;;;;;4997977;28;59532;-67
2023/10/08 02:56:32;;;;;;;0.20;0.20;;;;;;;;;;4997821;28;59158;-67
2023/10/08 02:58:57;;;;;;;0.52;0.50;;;;;;;;;;4998452;28;59260;-67
2023/10/08 03:01:22;;;;;;;0.40;0.40;;;;;;;;;;4998396;28;58376;-68
2023/10/08 03:03:47;;;;;;;0.50;0.50;;;;;;;;;;4997872;28;58533;-67
2023/10/08 03:06:14;;;;;;;0.67;0.30;;;;;;;;;;4997501;28;62130;-67
2023/10/08 03:08:41;;;;;;;0.30;0.30;;;;;;;;;;4997804;28;58904;-68
2023/10/08 03:11:16;;;;;;;0.28;0.28;;;;;;;;;;4998357;28;59283;-67
2023/10/08 03:13:41;;;;;;;0.40;0.40;;;;;;;;;;4999812;28;60637;-67
2023/10/08 03:16:09;;;;;;;0.60;0.32;;;;;;;;;;4998245;28;58880;-67
2023/10/08 03:18:41;;;;;;;0.30;0.30;;;;;;;;;;4998249;28;58592;-67
2023/10/08 03:21:43;;;;;;;0.43;0.40;;;;;;;;;;4998495;28;60042;-67
2023/10/08 03:24:23;;;;;;;0.55;0.55;;;;;;;;;;4998270;28;58366;-69
2023/10/08 03:26:55;;;;;;;0.45;0.45;;;;;;;;;;4998720;28;59495;-67
2023/10/08 03:29:20;;;;;;;0.35;0.20;;;;;;;;;;4998140;28;59093;-67
2023/10/08 03:34:14;;;;;;;;;;;;;;;;;;4999266;28;59344;-67
2023/10/08 03:36:46;;;;;;;0.20;0.20;;;;;;;;;;4996485;28;58936;-67
2023/10/08 03:39:13;;;;;;;0.35;0.22;;;;;;;;;;5000376;28;58380;-66
2023/10/08 03:41:39;;;;;;;0.17;0.10;;;;;;;;;;4999517;28;60119;-67
2023/10/08 03:44:06;;;;;;;0.45;0.43;;;;;;;;;;4999930;28;59472;-67
2023/10/08 03:46:39;;;;;;;0.52;0.20;;;;;;;;;;4998014;28;60531;-67
2023/10/08 03:49:05;;;;;;;0.20;0.20;;;;;;;;;;4999893;28;58401;-67
2023/10/08 03:51:38;;;;;;;0.30;0.30;;;;;;;;;;4998267;28;58475;-67
2023/10/08 03:54:15;;;;;;;0.20;0.20;;;;;;;;;;4996760;28;60231;-67
2023/10/08 03:56:45;;;;;;;0.30;0.30;;;;;;;;;;4996048;28;59958;-67
2023/10/08 03:59:29;;;;;;;0.28;0.28;;;;;;;;;;4997621;28;58642;-67
2023/10/08 04:01:59;;;;;;;0.30;0.30;;;;;;;;;;4997773;28;59309;-67
2023/10/08 04:04:31;;;;;;;0.38;0.30;;;;;;;;;;4998987;28;58455;-67
2023/10/08 04:07:24;;;;;;;0.20;0.20;;;;;;;;;;5001797;28;59752;-67
2023/10/08 04:09:42;;;;;;;0.25;0.25;;;;;;;;;;4995814;28;59225;-67
2023/10/08 04:12:10;;;;;;;0.22;0.20;;;;;;;;;;5000524;28;58465;-67
2023/10/08 04:14:36;;;;;;;0.32;0.32;;;;;;;;;;4997649;28;58702;-67
2023/10/08 04:17:01;;;;;;;0.30;0.30;;;;;;;;;;4998735;28;58913;-67
2023/10/08 04:19:29;;;;;;;0.20;0.20;;;;;;;;;;4998028;28;58568;-67
2023/10/08 04:21:54;;;;;;;;;;;;;;;;;;5000766;28;59642;-67
2023/10/08 04:24:29;;;;;;;0.20;0.15;;;;;;;;;;4998270;28;59730;-67
2023/10/08 04:26:57;;;;;;;0.20;0.20;;;;;;;;;;4996731;28;59619;-67
2023/10/08 04:29:23;;;;;;;0.32;0.20;;;;;;;;;;4997765;28;59840;-67
2023/10/08 04:31:54;;;;;;;0.25;0.20;;;;;;;;;;4998003;28;58437;-67
2023/10/08 04:34:22;;;;;;;0.20;0.20;;;;;;;;;;4999755;28;59380;-67
2023/10/08 04:36:54;;;;;;;0.20;0.20;;;;;;;;;;4989644;28;62588;-67
2023/10/08 04:39:26;;;;;;;0.30;0.22;;;;;;;;;;4991834;28;58484;-67
2023/10/08 04:41:54;;;;;;;0.10;0.10;;;;;;;;;;4998559;28;59446;-68
2023/10/08 04:44:21;;;;;;;0.38;0.38;;;;;;;;;;4998944;28;59179;-67
2023/10/08 04:46:47;;;;;;;0.95;0.22;;;;;;;;;;5001115;28;58429;-67
2023/10/08 04:49:46;;;;;;;0.20;0.13;;;;;;;;;;4998551;28;59010;-67
2023/10/08 04:52:13;;;;;;;0.20;0.10;;;;;;;;;;4996899;28;58568;-67
2023/10/08 04:54:40;;;;;;;0.43;0.13;;;;;;;;;;4999703;28;59569;-67
2023/10/08 04:57:06;;;;;;;0.17;0.10;;;;;;;;;;4997875;28;58503;-67
2023/10/08 04:59:34;;;;;;;0.22;0.22;;;;;;;;;;4998924;28;58425;-67
2023/10/08 05:02:13;;;;;;;;;;;;;;;;;;4999611;28;58648;-68
2023/10/08 05:05:21;;;;;;;0.28;0.28;;;;;;;;;;4997556;28;60308;-67
2023/10/08 05:12:37;;;;;;;0.10;0.10;;;;;;;;;;4997887;28;58423;-67
2023/10/08 05:15:41;;;;;;;0.10;0.10;;;;;;;;;;4997671;28;60904;-67
2023/10/08 05:17:58;;;;;;;0.10;0.10;;;;;;;;;;4996546;28;58418;-67
2023/10/08 05:23:32;;;;;;;0.65;0.20;;;;;;;;;;4995499;28;58532;-67
2023/10/08 05:25:58;;;;;;;0.10;0.10;;;;;;;;;;4996840;28;59660;-67
2023/10/08 05:28:26;;;;;;;0.10;0.10;;;;;;;;;;4999033;28;58606;-68
2023/10/08 05:31:09;;;;;;;0.10;0.10;;;;;;;;;;4998319;28;60238;-68
2023/10/08 05:36:35;;;;;;;0.05;0.05;;;;;;;;;;5003887;28;58499;-67
2023/10/08 05:39:00;;;;;;;0.20;0.20;;;;;;;;;;5000241;28;59887;-67
2023/10/08 05:41:38;;;;;;;0.20;0.20;;;;;;;;;;4997752;28;58370;-67
2023/10/08 05:46:49;;;;;;;0.10;0.10;;;;;;;;;;4990003;28;58837;-67
2023/10/08 05:54:35;;;;;;;0.10;0.10;;;;;;;;;;4999860;28;58393;-67
2023/10/08 05:59:38;;;;;;;0.32;0.20;;;;;;;;;;4999421;28;58915;-67
2023/10/08 06:02:26;;;;;;;0.30;0.15;;;;;;;;;;4998982;28;58741;-69
2023/10/08 06:05:09;;;;;;;0.10;0.10;;;;;;;;;;5000620;28;59732;-66
2023/10/08 06:07:47;;;;;;;0.10;0.10;;;;;;;;;;4997408;28;60204;-66
2023/10/08 06:10:41;;;;;;;;;;;;;;;;;;5000089;28;58407;-66
2023/10/08 06:13:13;;;;;;;0.10;0.10;;;;;;;;;;4997982;28;63391;-69
2023/10/08 06:18:14;;;;;;;0.10;0.10;;;;;;;;;;5000358;28;58490;-69
2023/10/08 06:20:42;;;;;;;0.30;0.30;;;;;;;;;;4996273;28;60184;-67
2023/10/08 06:23:08;;;;;;;0.30;0.20;;;;;;;;;;5000569;28;58396;-66
2023/10/08 06:25:44;;;;;;;0.30;0.20;;;;;;;;;;4998616;28;59786;-66
2023/10/08 06:28:09;;;;;;;0.20;0.20;;;;;;;;;;4999348;28;59075;-67
2023/10/08 06:30:34;;;;;;;0.00;0.00;;;;;;;;;;5001002;28;58426;-66
2023/10/08 06:33:00;;;;;;;0.10;0.10;;;;;;;;;;5001165;28;59547;-66
2023/10/08 06:35:27;;;;;;;0.20;0.20;;;;;;;;;;4996567;28;58915;-68
2023/10/08 06:37:55;;;;;;;0.30;0.30;;;;;;;;;;5002417;28;58610;-68
2023/10/08 06:43:11;;;;;;;0.13;0.10;;;;;;;;;;4999556;28;58525;-68
2023/10/08 06:45:37;;;;;;;0.35;0.20;;;;;;;;;;5000488;28;58704;-69
2023/10/08 06:48:06;;;;;;;0.28;0.28;;;;;;;;;;4998877;28;58728;-69
2023/10/08 06:50:32;;;;;;;0.30;0.28;;;;;;;;;;4997297;28;58406;-69
2023/10/08 06:52:57;;;;;;;0.38;0.32;;;;;;;;;;5001230;28;59238;-66
2023/10/08 06:55:26;;;;;;;0.20;0.20;;;;;;;;;;4998341;28;60546;-67
2023/10/08 06:57:52;;;;;;;0.08;0.08;;;;;;;;;;5001045;28;58465;-66
2023/10/08 07:00:37;;;;;;;0.13;0.13;;;;;;;;;;4999890;28;60712;-66
2023/10/08 07:03:02;;;;;;;0.35;0.35;;;;;;;;;;4998477;28;58629;-67
2023/10/08 07:05:28;;;;;;;1.75;0.30;;;;;;;;;;4998365;28;59926;-67
2023/10/08 07:07:54;;;;;;;0.10;0.10;;;;;;;;;;4999475;28;59380;-69
2023/10/08 07:10:19;;;;;;;0.10;0.10;;;;;;;;;;5000193;28;58689;-67
2023/10/08 07:12:46;;;;;;;0.20;0.10;;;;;;;;;;5000554;28;60154;-66
2023/10/08 07:15:12;;;;;;;0.15;0.13;;;;;;;;;;4999465;28;59174;-67
2023/10/08 07:17:40;;;;;;;0.57;0.20;;;;;;;;;;4995683;28;58525;-67
2023/10/08 07:20:13;;;;;;;0.13;0.13;;;;;;;;;;4997553;28;58654;-69
2023/10/08 07:22:39;;;;;;;0.88;0.47;;;;;;;;;;4998559;28;58867;-69
2023/10/08 07:25:08;;;;;;;0.10;0.10;;;;;;;;;;5001571;28;58397;-67
2023/10/08 07:27:37;;;;;;;0.03;0.03;;;;;;;;;;4996101;28;60057;-68
2023/10/08 07:30:10;;;;;;;0.00;0.00;;;;;;;;;;4998404;28;58443;-68
2023/10/08 07:32:35;;;;;;;0.20;0.08;;;;;;;;;;4995045;28;60405;-67
2023/10/08 07:35:23;;;;;;;0.30;0.30;;;;;;;;;;4991206;28;58640;-67
2023/10/08 07:37:48;;;;;;;0.47;0.20;;;;;;;;;;4993357;28;58618;-67
2023/10/08 07:40:14;;;;;;;0.40;0.30;;;;;;;;;;4994475;28;58959;-68
2023/10/08 07:42:39;;;;;;;0.10;0.10;;;;;;;;;;4994152;28;58682;-67
2023/10/08 07:45:05;;;;;;;0.30;0.15;;;;;;;;;;4999743;28;58346;-68
2023/10/08 07:47:30;;;;;;;0.68;0.20;;;;;;;;;;4996488;28;58599;-68
2023/10/08 07:49:56;;;;;;;2.77;0.30;;;;;;;;;;5000484;28;60037;-68
2023/10/08 07:52:21;;;;;;;2.37;0.67;;;;;;;;;;4995607;28;61419;-68
2023/10/08 07:54:47;;;;;;;0.80;0.33;;;;;;;;;;4991786;28;58447;-67
2023/10/08 07:57:17;;;;;;;3.30;0.47;;;;;;;;;;4992410;28;58383;-67
2023/10/08 07:59:46;;;;;;;1.08;0.43;;;;;;;;;;4992954;28;58849;-69
2023/10/08 08:02:12;;;;;;;4.22;0.47;;;;;;;;;;4992932;28;59046;-70
2023/10/08 08:04:39;;;;;;;0.88;0.32;;;;;;;;;;4991612;28;58444;-67
2023/10/08 08:07:05;;;;;;;2.80;0.70;;;;;;;;;;4991543;28;58611;-67
2023/10/08 08:09:30;;;;;;;2.42;0.75;;;;;;;;;;4994339;28;58556;-67
2023/10/08 08:11:57;;;;;;;0.70;0.40;;;;;;;;;;4995272;28;62383;-67
2023/10/08 08:14:24;;;;;;;1.48;0.80;;;;;;;;;;4997144;28;59180;-67
2023/10/08 08:16:50;;;;;;;3.17;0.70;;;;;;;;;;5000457;28;58442;-69
2023/10/08 08:19:16;;;;;;;3.42;0.90;;;;;;;;;;4999438;28;59438;-69
2023/10/08 08:21:45;;;;;;;2.80;1.08;;;;;;;;;;4995847;28;59267;-69
2023/10/08 08:24:12;;;;;;;1.63;1.00;;;;;;;;;;4996671;28;58604;-67
2023/10/08 08:26:40;;;;;;;4.97;0.57;;;;;;;;;;4997253;28;60636;-67
2023/10/08 08:29:08;;;;;;;3.97;0.50;;;;;;;;;;4997045;28;59988;-67
2023/10/08 08:31:37;;;;;;;2.78;1.02;;;;;;;;;;4996337;28;58720;-67
2023/10/08 08:34:17;;;;;;;;;;;;;;;;;;5000066;28;58578;-67
2023/10/08 08:36:46;;;;;;;0.77;0.43;;;;;;;;;;4999224;28;58488;-67
2023/10/08 08:39:17;;;;;;;7.32;0.38;;;;;;;;;;4996226;28;59373;-67
2023/10/08 08:41:43;;;;;;;2.95;0.98;;;;;;;;;;4992021;28;59829;-67
2023/10/08 08:44:09;;;;;;;1.85;0.65;;;;;;;;;;4995280;28;58496;-67
2023/10/08 08:46:35;;;;;;;4.95;0.70;;;;;;;;;;4992254;28;58766;-67
2023/10/08 08:49:03;;;;;;;5.65;0.95;;;;;;;;;;4997246;28;59909;-66
2023/10/08 08:51:29;;;;;;;3.70;1.05;;;;;;;;;;4997526;28;58425;-65
2023/10/08 08:53:55;;;;;;;2.97;0.77;;;;;;;;;;4993597;28;58401;-66
2023/10/08 08:56:21;;;;;;;2.77;1.10;;;;;;;;;;4996940;28;58365;-66
2023/10/08 08:58:46;;;;;;;3.70;0.93;;;;;;;;;;4995236;28;58346;-66
2023/10/08 09:01:13;;;;;;;5.47;0.83;;;;;;;;;;4998687;28;59522;-66
2023/10/08 09:03:39;;;;;;;5.38;1.20;;;;;;;;;;4996226;28;58445;-65
2023/10/08 09:06:05;;;;;;;6.78;0.75;;;;;;;;;;4995561;28;58532;-66
2023/10/08 09:08:34;;;;;;;2.88;0.93;;;;;;;;;;4995164;28;58994;-66
2023/10/08 09:11:00;;;;;;;2.80;1.02;;;;;;;;;;4994869;28;58457;-66
2023/10/08 09:13:26;;;;;;;7.03;0.88;;;;;;;;;;4998577;28;59525;-66
2023/10/08 09:15:51;;;;;;;2.60;0.90;;;;;;;;;;4998395;28;58457;-66
2023/10/08 09:18:17;;;;;;;4.43;1.37;;;;;;;;;;4996885;28;60296;-70
2023/10/08 09:20:43;;;;;;;1.40;0.60;;;;;;;;;;4994695;28;58841;-71
2023/10/08 09:23:17;;;;;;;0.77;0.60;;;;;;;;;;4999225;28;58350;-65
2023/10/08 09:25:43;;;;;;;2.90;1.02;;;;;;;;;;4994728;28;59510;-64
2023/10/08 09:28:09;;;;;;;3.90;1.08;;;;;;;;;;4995193;28;58749;-63
2023/10/08 09:30:38;;;;;;;3.88;1.08;;;;;;;;;;4996093;28;58433;-63
2023/10/08 09:33:07;;;;;;;3.17;0.75;;;;;;;;;;4996600;28;59141;-64
2023/10/08 09:35:33;;;;;;;3.20;1.00;;;;;;;;;;4998505;28;59835;-66
2023/10/08 09:37:58;;;;;;;6.57;1.98;;;;;;;;;;4993218;28;60726;-66
2023/10/08 09:40:25;;;;;;;5.25;0.85;;;;;;;;;;4996157;28;58929;-68
2023/10/08 09:42:51;;;;;;;3.92;1.38;;;;;;;;;;4996550;28;58351;-67
2023/10/08 09:45:17;;;;;;;3.78;0.60;;;;;;;;;;4998086;28;59676;-67
2023/10/08 09:47:49;;;;;;;7.47;0.60;;;;;;;;;;4995510;28;58697;-67
2023/10/08 09:50:15;;;;;;;8.15;1.30;;;;;;;;;;4997666;28;58645;-66
2023/10/08 09:52:48;;;;;;;5.28;1.60;;;;;;;;;;4996208;28;59280;-67
2023/10/08 09:55:17;;;;;;;2.88;1.05;;;;;;;;;;4997591;28;58302;-67
2023/10/08 09:57:42;;;;;;;3.25;1.27;;;;;;;;;;4995333;28;58670;-66
2023/10/08 10:00:14;;;;;;;4.45;1.00;;;;;;;;;;4996014;28;58889;-67
2023/10/08 10:02:40;;;;;;;5.15;1.83;;;;;;;;;;4997407;28;58522;-66
2023/10/08 10:05:06;;;;;;;2.33;1.10;;;;;;;;;;4996239;28;60291;-64
2023/10/08 10:07:31;;;;;;;3.35;0.93;;;;;;;;;;4996615;28;59241;-67
2023/10/08 10:09:56;;;;;;;6.33;1.03;;;;;;;;;;4997222;28;58760;-66
2023/10/08 10:12:26;;;;;;;4.15;1.27;;;;;;;;;;4998445;28;59754;-66
2023/10/08 10:14:55;;;;;;;6.85;1.60;;;;;;;;;;4998083;28;58949;-66
2023/10/08 10:17:22;;;;;;;8.60;1.67;;;;;;;;;;4994860;28;58358;-66
2023/10/08 10:19:59;;;;;;;3.57;1.00;;;;;;;;;;4995116;28;60363;-68
2023/10/08 10:22:35;;;;;;;1.80;0.70;;;;;;;;;;5000229;28;58771;-67
2023/10/08 10:25:14;;;;;;;2.42;0.82;;;;;;;;;;5001229;28;60267;-67
2023/10/08 10:27:39;;;;;;;4.32;0.90;;;;;;;;;;4999003;28;58465;-68
2023/10/08 10:30:08;;;;;;;6.07;1.53;;;;;;;;;;5001073;28;58463;-68
2023/10/08 10:32:34;;;;;;;2.22;1.05;;;;;;;;;;4998129;28;58732;-67
2023/10/08 10:35:02;;;;;;;3.90;1.48;;;;;;;;;;4999326;28;58861;-68
2023/10/08 10:37:40;;;;;;;8.10;1.90;;;;;;;;;;4999450;28;58526;-68
2023/10/08 10:40:10;;;;;;;4.60;1.45;;;;;;;;;;5000960;28;59763;-68
2023/10/08 10:42:38;;;;;;;2.78;0.90;;;;;;;;;;5001215;28;58573;-67
2023/10/08 10:45:09;;;;;;;3.35;0.60;;;;;;;;;;5000256;28;59498;-64
2023/10/08 10:47:43;;;;;;;1.98;0.95;;;;;;;;;;4998234;28;60077;-65
2023/10/08 10:50:31;;;;;;;3.47;1.00;;;;;;;;;;4999662;28;58492;-65
2023/10/08 10:52:57;;;;;;;3.17;0.43;;;;;;;;;;5000007;28;59618;-64
2023/10/08 10:55:31;;;;;;;8.25;0.55;;;;;;;;;;4995022;28;59076;-65
2023/10/08 10:58:22;;;;;;;4.63;0.70;;;;;;;;;;4997984;28;58415;-64
2023/10/08 11:03:16;;;;;;;3.97;0.60;;;;;;;;;;4998575;28;58668;-64
2023/10/08 11:05:47;;;;;;;3.00;1.45;;;;;;;;;;4998748;28;58530;-64
2023/10/08 11:08:14;;;;;;;5.03;0.85;;;;;;;;;;4999178;28;59196;-64
2023/10/08 11:11:05;;;;;;;2.37;0.87;;;;;;;;;;4998769;28;58856;-65
2023/10/08 11:13:37;;;;;;;4.30;1.55;;;;;;;;;;4998817;28;59801;-65
2023/10/08 11:16:03;;;;;;;3.83;0.90;;;;;;;;;;4997102;28;59084;-64
2023/10/08 11:18:28;;;;;;;2.33;0.95;;;;;;;;;;5000615;28;58500;-63
2023/10/08 11:21:13;;;;;;;2.17;0.60;;;;;;;;;;4997521;28;59432;-63
2023/10/08 11:23:53;;;;;;;2.00;0.57;;;;;;;;;;4999093;28;60218;-63
2023/10/08 11:26:19;;;;;;;3.28;1.20;;;;;;;;;;4998895;28;58596;-64
2023/10/08 11:28:47;;;;;;;3.28;1.83;;;;;;;;;;4997819;28;58871;-66
2023/10/08 11:31:13;;;;;;;;;;;;;;;;;;5000344;28;58388;-64
2023/10/08 11:33:39;;;;;;;6.18;0.85;;;;;;;;;;4998067;28;59621;-63
2023/10/08 11:36:06;;;;;;;10.48;1.80;;;;;;;;;;4997756;28;59990;-63
2023/10/08 11:38:41;;;;;;;2.67;0.70;;;;;;;;;;4997220;28;58736;-63
2023/10/08 11:41:13;;;;;;;1.38;0.90;;;;;;;;;;4994982;28;59433;-63
2023/10/08 11:43:39;;;;;;;1.10;0.55;;;;;;;;;;4997437;28;60056;-62
2023/10/08 11:46:05;;;;;;;2.72;0.68;;;;;;;;;;4998033;28;58453;-64
2023/10/08 11:48:32;;;;;;;3.15;1.58;;;;;;;;;;4985532;28;59552;-63
2023/10/08 11:51:01;;;;;;;3.78;1.30;;;;;;;;;;4994029;28;58512;-63
2023/10/08 11:53:27;;;;;;;2.00;0.88;;;;;;;;;;4999940;28;59512;-63
2023/10/08 11:55:56;;;;;;;2.40;0.90;;;;;;;;;;4997725;28;58467;-63
2023/10/08 11:58:35;;;;;;;5.95;1.00;;;;;;;;;;4997294;28;58421;-64
2023/10/08 12:01:03;;;;;;;6.28;0.98;;;;;;;;;;4999561;28;59037;-64
2023/10/08 12:03:29;;;;;;;5.35;1.05;;;;;;;;;;4996969;28;59132;-63
2023/10/08 12:05:59;;;;;;;3.17;0.80;;;;;;;;;;4998145;28;58480;-63
2023/10/08 12:08:27;;;;;;;4.80;1.10;;;;;;;;;;4999392;28;60429;-65
2023/10/08 12:10:54;;;;;;;3.17;0.88;;;;;;;;;;4989092;28;58448;-63
2023/10/08 12:13:23;;;;;;;2.70;0.63;;;;;;;;;;4998780;28;58855;-62
2023/10/08 12:15:50;;;;;;;1.38;0.50;;;;;;;;;;4998343;28;62772;-63
2023/10/08 12:18:19;;;;;;;5.75;0.82;;;;;;;;;;4997657;28;58618;-61
2023/10/08 12:20:46;;;;;;;2.83;0.88;;;;;;;;;;4996311;28;59396;-62
2023/10/08 12:23:18;;;;;;;3.88;0.93;;;;;;;;;;4997777;28;59914;-63
2023/10/08 12:25:51;;;;;;;6.70;1.02;;;;;;;;;;4997597;28;58508;-62
2023/10/08 12:28:16;;;;;;;2.40;0.85;;;;;;;;;;4995492;28;59721;-62
2023/10/08 12:30:42;;;;;;;4.50;0.97;;;;;;;;;;4992686;28;58569;-62
2023/10/08 12:33:12;;;;;;;3.17;1.00;;;;;;;;;;4998890;28;59577;-67
2023/10/08 12:35:37;;;;;;;6.07;1.77;;;;;;;;;;4997615;28;58899;-66
2023/10/08 12:38:05;;;;;;;2.53;0.90;;;;;;;;;;4994984;28;58965;-65
2023/10/08 12:40:41;;;;;;;5.32;0.88;;;;;;;;;;4995765;28;60365;-64
2023/10/08 12:43:07;;;;;;;5.28;1.27;;;;;;;;;;4996153;28;58672;-65
2023/10/08 12:45:32;;;;;;;1.92;0.73;;;;;;;;;;4996967;28;58461;-64
2023/10/08 12:47:58;;;;;;;1.80;0.90;;;;;;;;;;4997877;28;59647;-64
2023/10/08 12:50:29;;;;;;;2.25;0.55;;;;;;;;;;4996837;28;59872;-64
2023/10/08 12:52:55;;;;;;;6.60;1.02;;;;;;;;;;4998323;28;58491;-64
2023/10/08 12:55:26;;;;;;;4.43;0.90;;;;;;;;;;4996178;28;59262;-64
2023/10/08 12:57:55;;;;;;;1.17;0.68;;;;;;;;;;4976283;28;58409;-64
2023/10/08 13:00:23;;;;;;;4.53;1.48;;;;;;;;;;4975412;28;60392;-64
2023/10/08 13:02:53;;;;;;;;;;;;;;;;;;4987566;28;58536;-64
2023/10/08 13:05:21;;;;;;;2.35;1.00;;;;;;;;;;4997682;28;58644;-64
2023/10/08 13:07:46;;;;;;;;;;;;;;;;;;4997262;28;59612;-65
2023/10/08 13:10:14;;;;;;;3.07;0.70;;;;;;;;;;4995815;28;58319;-64
2023/10/08 13:12:39;;;;;;;1.35;0.50;;;;;;;;;;4998309;28;58536;-65
2023/10/08 13:15:06;;;;;;;3.80;0.70;;;;;;;;;;4999616;28;58494;-63
2023/10/08 13:17:31;;;;;;;3.35;0.75;;;;;;;;;;4997328;28;58382;-63
2023/10/08 13:19:56;;;;;;;1.38;0.85;;;;;;;;;;4998541;28;59359;-63
2023/10/08 13:22:24;;;;;;;5.90;0.87;;;;;;;;;;4996073;28;58662;-64
2023/10/08 13:24:49;;;;;;;2.90;1.10;;;;;;;;;;4999808;28;58366;-64
2023/10/08 13:27:16;;;;;;;3.63;1.10;;;;;;;;;;4998466;28;58756;-64
2023/10/08 13:29:41;;;;;;;4.18;1.33;;;;;;;;;;4997779;28;58997;-64
2023/10/08 13:32:06;;;;;;;2.88;0.73;;;;;;;;;;4996209;28;58552;-64
2023/10/08 13:34:31;;;;;;;1.90;0.90;;;;;;;;;;4999501;28;59275;-64
2023/10/08 13:36:57;;;;;;;5.47;2.00;;;;;;;;;;4994618;28;58718;-64
2023/10/08 13:39:22;;;;;;;1.75;0.80;;;;;;;;;;4993018;28;59120;-64
2023/10/08 13:41:52;;;;;;;3.58;0.80;;;;;;;;;;4995184;28;58644;-67
2023/10/08 13:44:18;;;;;;;3.75;0.90;;;;;;;;;;4996378;28;58414;-65
2023/10/08 13:46:48;;;;;;;4.28;0.63;;;;;;;;;;4996131;28;60008;-65
2023/10/08 13:49:16;;;;;;;4.78;1.27;;;;;;;;;;4995775;28;58908;-66
2023/10/08 13:51:41;;;;;;;1.95;0.60;;;;;;;;;;4997240;28;58431;-64
2023/10/08 13:54:09;;;;;;;3.23;1.03;;;;;;;;;;4994455;28;61864;-65
2023/10/08 13:56:37;;;;;;;4.18;1.63;;;;;;;;;;4999700;28;60286;-65
2023/10/08 13:59:12;;;;;;;5.30;0.95;;;;;;;;;;4998938;28;58609;-66
2023/10/08 14:01:38;;;;;;;3.67;0.80;;;;;;;;;;4997023;28;58808;-65
2023/10/08 14:04:06;;;;;;;4.88;0.60;;;;;;;;;;5002154;28;58552;-65
2023/10/08 14:06:32;;;;;;;2.10;0.90;;;;;;;;;;4999201;28;59539;-65
2023/10/08 14:09:00;;;;;;;2.70;0.60;;;;;;;;;;4999586;28;59738;-65
2023/10/08 14:11:29;;;;;;;3.92;0.80;;;;;;;;;;4999551;28;58426;-64
2023/10/08 14:13:55;;;;;;;2.35;0.77;;;;;;;;;;5000241;28;59602;-65
2023/10/08 14:16:23;;;;;;;2.67;0.82;;;;;;;;;;4998880;28;58769;-66
2023/10/08 14:18:53;;;;;;;;;;;;;;;;;;5002007;28;58744;-65
2023/10/08 14:21:23;;;;;;;4.40;1.02;;;;;;;;;;4999035;28;59746;-64
2023/10/08 14:23:48;;;;;;;2.25;1.30;;;;;;;;;;4998555;28;58418;-63
2023/10/08 14:26:15;;;;;;;4.63;2.15;;;;;;;;;;5000214;28;59540;-61
2023/10/08 14:28:42;;;;;;;2.35;1.33;;;;;;;;;;4996972;28;58381;-68
2023/10/08 14:31:08;;;;;;;6.47;1.13;;;;;;;;;;4997031;28;58544;-64
2023/10/08 14:33:41;;;;;;;1.58;0.80;;;;;;;;;;4995206;28;58786;-65
2023/10/08 14:44:19;;;;;;;5.05;1.30;;;;;;;;;;4997009;28;58379;-68
2023/10/08 14:46:44;;;;;;;6.38;2.10;;;;;;;;;;4998884;28;60367;-65
2023/10/08 14:49:10;;;;;;;2.13;0.70;;;;;;;;;;4998228;28;59107;-67
2023/10/08 14:51:36;;;;;;;2.30;0.73;;;;;;;;;;4997704;28;58410;-65
2023/10/08 14:54:01;;;;;;;3.83;1.10;;;;;;;;;;4995047;28;59789;-66
2023/10/08 14:56:30;;;;;;;10.70;2.37;;;;;;;;;;4995370;28;59092;-65
2023/10/08 14:58:55;;;;;;;4.45;0.90;;;;;;;;;;4993224;28;58549;-65
2023/10/08 15:01:22;;;;;;;5.67;1.63;;;;;;;;;;4993863;28;59073;-67
2023/10/08 15:03:48;;;;;;;3.33;0.98;;;;;;;;;;4997149;28;62290;-68
2023/10/08 15:06:13;;;;;;;4.27;1.63;;;;;;;;;;4995966;28;59698;-66
2023/10/08 15:08:38;;;;;;;2.77;1.73;;;;;;;;;;4997637;28;59804;-66
2023/10/08 15:11:06;;;;;;;2.53;1.33;;;;;;;;;;4999538;28;58582;-65
2023/10/08 15:13:33;;;;;;;4.10;1.70;;;;;;;;;;4998258;28;59794;-63
2023/10/08 15:16:00;;;;;;;4.63;2.00;;;;;;;;;;4996001;28;60036;-64
2023/10/08 15:18:31;;;;;;;4.55;1.33;;;;;;;;;;4997159;28;58532;-67
2023/10/08 15:20:57;;;;;;;4.80;2.13;;;;;;;;;;4991782;28;59654;-68
2023/10/08 15:23:25;;;;;;;3.25;1.58;;;;;;;;;;4998027;28;58802;-65
2023/10/08 15:25:50;;;;;;;3.13;1.27;;;;;;;;;;5001234;28;58435;-69
2023/10/08 15:28:16;;;;;;;5.97;1.55;;;;;;;;;;4997816;28;60003;-68
2023/10/08 15:30:41;;;;;;;3.97;1.42;;;;;;;;;;4998981;28;58430;-70
2023/10/08 15:33:07;;;;;;;5.07;1.30;;;;;;;;;;4996160;28;59069;-69
2023/10/08 15:35:33;;;;;;;6.13;1.08;;;;;;;;;;4991613;28;58928;-69
2023/10/08 15:37:58;;;;;;;1.83;1.20;;;;;;;;;;5007682;28;58487;-69